Flamborough, United Kingdom
Current Conditions -  °F | °C
As of 8:50 PM on Tuesday 21 Oct 2014 (Local Time) from EGXV Reporting Station
Clear Clear  
Wind Chill: 39°   Ceiling: Unl
Heat Index: 46°   Visibility: 6mi
Dew Point: 36°   Wind: 17mph
Humidity: 66%   Direction: 290°WNW
Pressure: 29.88"   Gusts: 30mph
Location:  54.11°N, 0.12°W
Report Text: EGXV 211950Z AUTO 29015G26KT 9999 NCD 08/02 Q1012
Loading
Personal Weather Stations






























Interactive Weather Map
Tropical Storm Tracking
New forecast layout! Learn more

10-Day Weather Forecast

Advertisements
Track Severe Weather on mobile